createdAt,value
2023-11-01T00:02:14.954Z,17.20
2023-11-01T00:04:41.898Z,17.10
2023-11-01T00:07:08.900Z,17.06
2023-11-01T00:09:35.745Z,16.99
2023-11-01T00:12:03.084Z,16.96
2023-11-01T00:14:30.062Z,16.99
2023-11-01T00:16:57.006Z,17.00
2023-11-01T00:19:24.811Z,17.01
2023-11-01T00:21:51.706Z,16.98
2023-11-01T00:24:19.207Z,17.04
2023-11-01T00:26:46.269Z,17.05
2023-11-01T00:29:13.859Z,16.98
2023-11-01T00:31:40.965Z,16.99
2023-11-01T00:34:08.912Z,17.01
2023-11-01T00:36:35.895Z,17.00
2023-11-01T00:39:03.200Z,16.87
2023-11-01T00:41:31.301Z,16.81
2023-11-01T00:43:58.249Z,16.75
2023-11-01T00:46:25.937Z,16.61
2023-11-01T00:48:52.878Z,16.57
2023-11-01T00:51:20.058Z,16.54
2023-11-01T00:53:46.889Z,16.54
2023-11-01T00:56:13.879Z,16.44
2023-11-01T00:58:40.894Z,16.40
2023-11-01T01:01:07.714Z,16.40
2023-11-01T01:03:34.738Z,16.43
2023-11-01T01:06:02.379Z,16.49
2023-11-01T01:08:30.785Z,16.58
2023-11-01T01:10:58.148Z,16.63
2023-11-01T01:13:25.139Z,16.68
2023-11-01T01:15:52.350Z,16.77
2023-11-01T01:18:21.829Z,16.73
2023-11-01T01:20:49.228Z,16.75
2023-11-01T01:23:16.458Z,16.77
2023-11-01T01:25:43.571Z,16.76
2023-11-01T01:28:10.483Z,16.73
2023-11-01T01:30:38.009Z,16.75
2023-11-01T01:33:04.975Z,16.69
2023-11-01T01:35:32.149Z,16.77
2023-11-01T01:37:59.268Z,16.77
2023-11-01T01:40:26.199Z,16.72
2023-11-01T01:42:53.313Z,16.61
2023-11-01T01:45:22.813Z,16.40
2023-11-01T01:47:50.192Z,16.29
2023-11-01T01:50:17.209Z,16.29
2023-11-01T01:52:44.171Z,16.36
2023-11-01T01:55:12.248Z,16.35
2023-11-01T01:57:39.825Z,16.30
2023-11-01T02:00:08.724Z,16.31
2023-11-01T02:02:42.255Z,16.25
2023-11-01T02:05:10.594Z,16.29
2023-11-01T02:07:37.383Z,16.29
2023-11-01T02:10:04.607Z,16.33
2023-11-01T02:12:31.493Z,16.36
2023-11-01T02:14:58.301Z,16.28
2023-11-01T02:17:25.214Z,16.33
2023-11-01T02:19:52.106Z,16.37
2023-11-01T02:22:18.960Z,16.40
2023-11-01T02:24:45.986Z,16.41
2023-11-01T02:27:13.178Z,16.44
2023-11-01T02:29:40.035Z,16.46
2023-11-01T02:32:09.422Z,16.46
2023-11-01T02:34:37.319Z,16.47
2023-11-01T02:37:04.997Z,16.47
2023-11-01T02:39:31.860Z,16.43
2023-11-01T02:41:58.675Z,16.44
2023-11-01T02:44:25.530Z,16.40
2023-11-01T02:46:52.430Z,16.38
2023-11-01T02:49:19.321Z,16.41
2023-11-01T02:51:46.116Z,16.35
2023-11-01T02:54:12.947Z,16.29
2023-11-01T02:56:40.026Z,16.30
2023-11-01T02:59:07.100Z,16.34
2023-11-01T03:01:34.832Z,16.27
2023-11-01T03:04:01.848Z,16.28
2023-11-01T03:06:28.728Z,16.28
2023-11-01T03:08:55.845Z,16.29
2023-11-01T03:11:22.802Z,16.23
2023-11-01T03:13:49.935Z,16.19
2023-11-01T03:16:16.820Z,16.16
2023-11-01T03:18:45.688Z,16.17
2023-11-01T03:21:12.649Z,16.16
2023-11-01T03:23:39.513Z,16.06
2023-11-01T03:26:06.545Z,16.11
2023-11-01T03:28:33.682Z,16.13
2023-11-01T03:31:00.514Z,16.10
2023-11-01T03:33:28.607Z,16.10
2023-11-01T03:35:55.504Z,16.09
2023-11-01T03:38:23.624Z,16.05
2023-11-01T03:40:50.592Z,15.95
2023-11-01T03:43:17.449Z,15.90
2023-11-01T03:45:44.293Z,15.89
2023-11-01T03:48:11.233Z,15.80
2023-11-01T03:50:38.093Z,15.85
2023-11-01T03:53:05.085Z,15.82
2023-11-01T03:55:31.924Z,15.82
2023-11-01T03:57:58.762Z,15.78
2023-11-01T04:00:25.577Z,15.62
2023-11-01T04:02:52.677Z,15.56
2023-11-01T04:05:19.886Z,15.46
2023-11-01T04:07:46.949Z,15.39
2023-11-01T04:10:14.643Z,15.44
2023-11-01T04:12:41.525Z,15.21
2023-11-01T04:15:14.800Z,15.22
2023-11-01T04:17:41.697Z,15.12
2023-11-01T04:20:09.816Z,15.12
2023-11-01T04:22:39.009Z,15.07
2023-11-01T04:25:06.954Z,15.19
2023-11-01T04:27:41.122Z,15.23
2023-11-01T04:30:13.435Z,15.04
2023-11-01T04:32:42.503Z,14.93
2023-11-01T04:35:12.425Z,15.03
2023-11-01T04:37:43.015Z,14.98
2023-11-01T04:40:14.369Z,14.98
2023-11-01T04:42:42.804Z,14.97
2023-11-01T04:45:11.409Z,14.90
2023-11-01T04:47:45.891Z,14.80
2023-11-01T04:50:14.508Z,14.86
2023-11-01T04:52:42.556Z,14.93
2023-11-01T04:55:11.500Z,14.90
2023-11-01T04:57:38.547Z,15.02
2023-11-01T05:00:17.883Z,14.92
2023-11-01T05:02:49.195Z,15.05
2023-11-01T05:05:16.213Z,15.06
2023-11-01T05:07:43.420Z,15.08
2023-11-01T05:10:10.509Z,15.13
2023-11-01T05:12:37.337Z,15.17
2023-11-01T05:15:04.466Z,15.20
2023-11-01T05:17:31.447Z,15.22
2023-11-01T05:19:58.833Z,15.26
2023-11-01T05:22:25.645Z,15.24
2023-11-01T05:24:52.516Z,15.21
2023-11-01T05:27:21.215Z,15.27
2023-11-01T05:29:48.517Z,15.33
2023-11-01T05:32:15.447Z,15.30
2023-11-01T05:34:42.343Z,15.24
2023-11-01T05:37:12.388Z,15.27
2023-11-01T05:39:39.449Z,15.28
2023-11-01T05:42:07.072Z,15.20
2023-11-01T05:44:34.044Z,15.26
2023-11-01T05:47:01.275Z,15.27
2023-11-01T05:49:28.294Z,15.22
2023-11-01T05:51:55.313Z,15.29
2023-11-01T05:54:22.340Z,15.22
2023-11-01T05:56:49.137Z,15.06
2023-11-01T05:59:16.416Z,15.13
2023-11-01T06:01:43.381Z,15.14
2023-11-01T06:04:10.336Z,15.25
2023-11-01T06:06:37.629Z,15.29
2023-11-01T06:09:04.624Z,15.37
2023-11-01T06:11:33.083Z,15.42
2023-11-01T06:14:00.566Z,15.47
2023-11-01T06:16:27.596Z,15.53
2023-11-01T06:18:54.555Z,15.59
2023-11-01T06:21:21.336Z,15.62
2023-11-01T06:23:48.161Z,15.68
2023-11-01T06:26:17.744Z,15.70
2023-11-01T06:28:45.028Z,15.78
2023-11-01T06:31:15.481Z,15.83
2023-11-01T06:33:42.655Z,15.87
2023-11-01T06:36:09.822Z,15.87
2023-11-01T06:38:37.438Z,15.95
2023-11-01T06:41:05.512Z,15.92
2023-11-01T06:43:33.080Z,15.96
2023-11-01T06:45:59.881Z,16.02
2023-11-01T06:48:26.844Z,15.99
2023-11-01T06:50:53.871Z,16.08
2023-11-01T06:53:20.804Z,16.09
2023-11-01T06:55:47.642Z,16.11
2023-11-01T06:58:14.517Z,16.21
2023-11-01T07:00:42.423Z,16.28
2023-11-01T07:03:11.848Z,16.26
2023-11-01T07:05:39.585Z,16.33
2023-11-01T07:08:06.530Z,16.37
2023-11-01T07:10:33.366Z,16.52
2023-11-01T07:13:00.252Z,16.65
2023-11-01T07:15:27.069Z,16.77
2023-11-01T07:17:54.047Z,16.84
2023-11-01T07:20:20.899Z,16.96
2023-11-01T07:22:47.801Z,17.08
2023-11-01T07:25:14.900Z,17.14
2023-11-01T07:27:41.792Z,17.21
2023-11-01T07:30:09.154Z,17.27
2023-11-01T07:32:36.050Z,17.36
2023-11-01T07:35:04.868Z,17.48
2023-11-01T07:37:31.719Z,17.54
2023-11-01T07:39:59.142Z,17.65
2023-11-01T07:42:26.032Z,17.72
2023-11-01T07:44:53.633Z,17.86
2023-11-01T07:47:20.556Z,18.02
2023-11-01T07:49:47.459Z,18.18
2023-11-01T07:52:14.942Z,18.31
2023-11-01T07:54:41.791Z,18.30
2023-11-01T07:57:09.062Z,18.21
2023-11-01T07:59:35.983Z,18.15
2023-11-01T08:02:02.823Z,18.13
2023-11-01T08:04:29.967Z,18.04
2023-11-01T08:06:57.861Z,18.07
2023-11-01T08:09:24.845Z,17.98
2023-11-01T08:11:51.753Z,17.79
2023-11-01T08:14:18.656Z,17.86
2023-11-01T08:16:49.380Z,17.89
2023-11-01T08:19:16.717Z,17.87
2023-11-01T08:21:43.707Z,18.08
2023-11-01T08:24:10.781Z,18.31
2023-11-01T08:26:37.699Z,18.51
2023-11-01T08:29:04.832Z,18.73
2023-11-01T08:31:31.769Z,18.88
2023-11-01T08:33:58.828Z,19.06
2023-11-01T08:36:25.738Z,19.07
2023-11-01T08:38:52.620Z,19.21
2023-11-01T08:41:20.347Z,19.37
2023-11-01T08:43:47.243Z,19.48
2023-11-01T08:46:14.830Z,19.62
2023-11-01T08:48:41.735Z,19.66
2023-11-01T08:51:11.526Z,19.62
2023-11-01T08:53:38.445Z,19.82
2023-11-01T08:56:06.364Z,19.92
2023-11-01T08:58:33.255Z,20.06
2023-11-01T09:01:01.551Z,20.17
2023-11-01T09:03:28.906Z,20.17
2023-11-01T09:05:56.087Z,20.34
2023-11-01T09:08:23.214Z,20.41
2023-11-01T09:10:52.923Z,20.55
2023-11-01T09:13:21.289Z,20.68
2023-11-01T09:15:48.118Z,20.81
2023-11-01T09:18:15.024Z,20.97
2023-11-01T09:20:41.910Z,21.19
2023-11-01T09:23:08.730Z,21.36
2023-11-01T09:25:35.675Z,21.41
2023-11-01T09:28:02.571Z,21.27
2023-11-01T09:30:29.569Z,21.31
2023-11-01T09:32:56.559Z,21.35
2023-11-01T09:35:23.696Z,21.43
2023-11-01T09:37:50.560Z,21.43
2023-11-01T09:40:17.553Z,21.41
2023-11-01T09:42:44.643Z,21.38
2023-11-01T09:45:13.415Z,21.19
2023-11-01T09:47:40.942Z,21.22
2023-11-01T09:50:09.510Z,21.12
2023-11-01T09:52:37.423Z,21.21
2023-11-01T09:55:05.999Z,21.20
2023-11-01T09:57:35.062Z,21.23
2023-11-01T10:00:05.804Z,21.22
2023-11-01T10:02:33.658Z,21.31
2023-11-01T10:05:00.751Z,21.43
2023-11-01T10:07:27.574Z,21.54
2023-11-01T10:09:55.758Z,21.53
2023-11-01T10:12:24.297Z,21.62
2023-11-01T10:14:51.100Z,21.44
2023-11-01T10:17:18.087Z,21.47
2023-11-01T10:19:44.935Z,21.51
2023-11-01T10:22:15.319Z,21.60
2023-11-01T10:24:45.176Z,21.75
2023-11-01T10:27:12.243Z,21.73
2023-11-01T10:29:44.482Z,21.80
2023-11-01T10:32:11.758Z,21.62
2023-11-01T10:34:38.787Z,21.28
2023-11-01T10:37:06.971Z,21.32
2023-11-01T10:39:37.250Z,21.32
2023-11-01T10:42:06.100Z,21.30
2023-11-01T10:44:33.475Z,21.23
2023-11-01T10:47:01.544Z,21.36
2023-11-01T10:49:29.397Z,21.53
2023-11-01T10:52:00.563Z,21.66
2023-11-01T10:54:28.797Z,21.70
2023-11-01T10:56:56.533Z,21.76
2023-11-01T11:00:09.579Z,21.80
2023-11-01T11:02:54.284Z,21.86
2023-11-01T11:05:27.563Z,21.85
2023-11-01T11:07:58.408Z,21.79
2023-11-01T11:10:33.982Z,21.70
2023-11-01T11:13:10.434Z,21.68
2023-11-01T11:15:49.716Z,21.63
2023-11-01T11:18:23.192Z,21.64
2023-11-01T11:20:51.795Z,21.66
2023-11-01T11:23:21.179Z,21.65
2023-11-01T11:25:50.884Z,21.73
2023-11-01T11:28:23.830Z,21.90
2023-11-01T11:31:17.124Z,22.10
2023-11-01T11:33:47.240Z,22.20
2023-11-01T11:36:14.913Z,22.22
2023-11-01T11:38:58.121Z,22.25
2023-11-01T11:41:37.299Z,22.27
2023-11-01T11:44:14.817Z,22.37
2023-11-01T11:46:41.983Z,22.41
2023-11-01T11:49:22.207Z,22.52
2023-11-01T11:52:18.589Z,22.56
2023-11-01T11:54:45.766Z,22.42
2023-11-01T11:57:14.725Z,22.54
2023-11-01T11:59:43.598Z,22.54
2023-11-01T12:02:13.559Z,22.69
2023-11-01T12:04:41.637Z,22.60
2023-11-01T12:07:09.116Z,22.80
2023-11-01T12:09:36.015Z,22.74
2023-11-01T12:12:15.368Z,22.78
2023-11-01T12:14:45.831Z,22.73
2023-11-01T12:17:12.735Z,22.85
2023-11-01T12:19:47.091Z,22.74
2023-11-01T12:22:15.678Z,22.94
2023-11-01T12:24:43.557Z,22.89
2023-11-01T12:27:12.394Z,22.98
2023-11-01T12:29:43.462Z,22.92
2023-11-01T12:32:15.253Z,22.85
2023-11-01T12:34:50.943Z,22.94
2023-11-01T12:37:20.521Z,22.93
2023-11-01T12:40:08.859Z,23.03
2023-11-01T12:42:36.446Z,23.02
2023-11-01T12:45:04.642Z,22.93
2023-11-01T12:47:45.091Z,22.89
2023-11-01T12:50:16.803Z,22.76
2023-11-01T12:52:44.099Z,22.69
2023-11-01T12:55:11.822Z,22.61
2023-11-01T12:57:50.862Z,22.62
2023-11-01T13:00:20.607Z,22.45
2023-11-01T13:02:47.808Z,22.56
2023-11-01T13:05:15.124Z,22.55
2023-11-01T13:07:42.520Z,22.41
2023-11-01T13:10:12.595Z,22.46
2023-11-01T13:12:40.315Z,22.37
2023-11-01T13:15:08.148Z,22.43
2023-11-01T13:17:35.189Z,22.33
2023-11-01T13:20:02.091Z,22.40
2023-11-01T13:22:28.923Z,22.24
2023-11-01T13:24:55.792Z,22.25
2023-11-01T13:27:22.609Z,22.19
2023-11-01T13:29:50.755Z,22.05
2023-11-01T13:32:17.836Z,21.98
2023-11-01T13:34:44.860Z,22.12
2023-11-01T13:37:13.861Z,22.11
2023-11-01T13:39:40.667Z,22.20
2023-11-01T13:42:07.838Z,22.27
2023-11-01T13:44:34.771Z,22.38
2023-11-01T13:47:01.717Z,22.37
2023-11-01T13:49:28.615Z,22.29
2023-11-01T13:51:55.661Z,22.35
2023-11-01T13:54:22.539Z,22.37
2023-11-01T13:56:49.407Z,22.25
2023-11-01T13:59:16.264Z,22.35
2023-11-01T14:01:43.096Z,22.30
2023-11-01T14:04:09.993Z,22.28
2023-11-01T14:06:36.916Z,22.38
2023-11-01T14:09:05.231Z,22.41
2023-11-01T14:11:33.060Z,22.52
2023-11-01T14:14:00.036Z,22.61
2023-11-01T14:16:26.864Z,22.67
2023-11-01T14:18:53.865Z,22.60
2023-11-01T14:21:20.783Z,22.56
2023-11-01T14:23:47.806Z,22.54
2023-11-01T14:26:14.732Z,22.54
2023-11-01T14:28:42.554Z,22.52
2023-11-01T14:31:09.661Z,22.49
2023-11-01T14:33:36.723Z,22.55
2023-11-01T14:36:08.520Z,22.50
2023-11-01T14:38:35.852Z,22.36
2023-11-01T14:41:02.955Z,22.45
2023-11-01T14:43:29.838Z,22.50
2023-11-01T14:45:58.078Z,22.55
2023-11-01T14:48:25.045Z,22.56
2023-11-01T14:50:51.907Z,22.64
2023-11-01T14:53:19.393Z,22.51
2023-11-01T14:55:46.290Z,22.55
2023-11-01T14:58:13.186Z,22.58
2023-11-01T15:00:41.836Z,22.52
2023-11-01T15:03:08.886Z,22.48
2023-11-01T15:05:35.985Z,22.51
2023-11-01T15:08:02.903Z,22.55
2023-11-01T15:10:30.254Z,22.60
2023-11-01T15:12:57.106Z,22.63
2023-11-01T15:15:24.602Z,22.68
2023-11-01T15:17:53.207Z,22.69
2023-11-01T15:20:20.255Z,22.66
2023-11-01T15:22:47.127Z,22.71
2023-11-01T15:25:14.040Z,22.72
2023-11-01T15:27:40.857Z,22.66
2023-11-01T15:30:09.854Z,22.71
2023-11-01T15:32:39.127Z,22.77
2023-11-01T15:35:06.562Z,22.85
2023-11-01T15:37:33.581Z,22.89
2023-11-01T15:40:03.306Z,22.75
2023-11-01T15:42:33.369Z,22.80
2023-11-01T15:45:01.122Z,22.83
2023-11-01T15:47:29.482Z,22.84
2023-11-01T15:49:56.837Z,22.92
2023-11-01T15:52:24.103Z,22.75
2023-11-01T15:54:52.524Z,22.71
2023-11-01T15:57:22.423Z,22.68
2023-11-01T15:59:50.692Z,22.65
2023-11-01T16:02:17.759Z,22.62
2023-11-01T16:04:45.014Z,22.54
2023-11-01T16:07:11.933Z,22.51
2023-11-01T16:09:45.166Z,22.39
2023-11-01T16:12:12.078Z,22.38
2023-11-01T16:14:40.581Z,22.31
2023-11-01T16:17:11.104Z,22.27
2023-11-01T16:19:40.822Z,22.26
2023-11-01T16:22:07.624Z,22.27
2023-11-01T16:24:37.020Z,22.25
2023-11-01T16:27:06.775Z,22.24
2023-11-01T16:29:33.826Z,22.16
2023-11-01T16:32:01.408Z,22.13
2023-11-01T16:34:28.446Z,22.01
2023-11-01T16:36:55.367Z,22.03
2023-11-01T16:39:22.347Z,21.99
2023-11-01T16:41:52.527Z,21.97
2023-11-01T16:44:22.152Z,21.93
2023-11-01T16:46:49.323Z,21.92
2023-11-01T16:49:16.828Z,21.87
2023-11-01T16:51:45.815Z,21.83
2023-11-01T16:54:14.355Z,21.82
2023-11-01T16:56:41.232Z,21.79
2023-11-01T16:59:09.402Z,21.76
2023-11-01T17:01:36.579Z,21.72
2023-11-01T17:04:06.559Z,21.70
2023-11-01T17:06:33.902Z,21.66
2023-11-01T17:09:01.293Z,21.63
2023-11-01T17:11:28.240Z,21.58
2023-11-01T17:13:57.426Z,21.56
2023-11-01T17:16:24.396Z,21.53
2023-11-01T17:18:51.262Z,21.51
2023-11-01T17:21:18.105Z,21.48
2023-11-01T17:23:46.435Z,21.47
2023-11-01T17:26:24.094Z,21.41
2023-11-01T17:28:51.284Z,21.39
2023-11-01T17:31:40.524Z,21.38
2023-11-01T17:34:08.506Z,21.34
2023-11-01T17:36:36.673Z,21.30
2023-11-01T17:39:06.753Z,21.26
2023-11-01T17:41:53.438Z,21.27
2023-11-01T17:44:23.773Z,21.20
2023-11-01T17:46:58.772Z,21.21
2023-11-01T17:49:51.427Z,21.20
2023-11-01T17:52:31.984Z,21.18
2023-11-01T17:55:00.321Z,21.19
2023-11-01T17:57:27.348Z,21.14
2023-11-01T17:59:57.387Z,21.10
2023-11-01T18:02:28.093Z,21.05
2023-11-01T18:05:01.395Z,21.04
2023-11-01T18:07:28.547Z,20.99
2023-11-01T18:09:58.235Z,20.99
2023-11-01T18:12:25.058Z,20.97
2023-11-01T18:14:53.812Z,20.95
2023-11-01T18:17:23.116Z,20.92
2023-11-01T18:19:50.228Z,20.91
2023-11-01T18:22:44.367Z,20.88
2023-11-01T18:25:58.680Z,20.87
2023-11-01T18:28:27.352Z,20.90
2023-11-01T18:30:56.397Z,20.90
2023-11-01T18:33:25.911Z,20.93
2023-11-01T18:35:56.366Z,20.91
2023-11-01T18:39:04.802Z,20.90
2023-11-01T18:41:38.820Z,20.90
2023-11-01T18:44:30.290Z,20.89
2023-11-01T18:46:58.289Z,20.88
2023-11-01T18:50:08.860Z,20.87
2023-11-01T18:52:37.419Z,20.87
2023-11-01T18:55:11.818Z,20.87
2023-11-01T18:57:41.080Z,20.85
2023-11-01T19:00:12.627Z,20.84
2023-11-01T19:02:39.714Z,20.83
2023-11-01T19:05:10.526Z,20.79
2023-11-01T19:07:45.230Z,20.79
2023-11-01T19:10:12.727Z,20.73
2023-11-01T19:12:39.673Z,20.75
2023-11-01T19:15:09.299Z,20.74
2023-11-01T19:17:57.089Z,20.70
2023-11-01T19:20:24.231Z,20.72
2023-11-01T19:22:51.088Z,20.70
2023-11-01T19:25:18.329Z,20.68
2023-11-01T19:27:45.758Z,20.70
2023-11-01T19:30:13.055Z,20.75
2023-11-01T19:32:43.878Z,20.75
2023-11-01T19:35:11.782Z,20.79
2023-11-01T19:37:38.981Z,20.81
2023-11-01T19:40:07.822Z,20.82
2023-11-01T19:42:38.974Z,20.87
2023-11-01T19:45:10.185Z,20.87
2023-11-01T19:47:37.815Z,20.87
2023-11-01T19:50:05.714Z,20.89
2023-11-01T19:52:32.664Z,20.89
2023-11-01T19:54:59.649Z,20.91
2023-11-01T19:57:27.204Z,20.92
2023-11-01T19:59:54.121Z,20.92
2023-11-01T20:02:24.439Z,20.91
2023-11-01T20:04:51.388Z,20.90
2023-11-01T20:07:18.253Z,20.90
2023-11-01T20:09:45.044Z,20.82
2023-11-01T20:12:13.586Z,20.82
2023-11-01T20:14:41.547Z,20.79
2023-11-01T20:17:10.344Z,20.79
2023-11-01T20:19:37.727Z,20.80
2023-11-01T20:22:04.786Z,20.77
2023-11-01T20:24:31.614Z,20.75
2023-11-01T20:26:58.453Z,20.77
2023-11-01T20:29:27.580Z,20.68
2023-11-01T20:31:54.474Z,20.68
2023-11-01T20:34:21.678Z,20.68
2023-11-01T20:36:48.562Z,20.67
2023-11-01T20:39:15.535Z,20.66
2023-11-01T20:41:42.575Z,20.71
2023-11-01T20:44:09.381Z,20.72
2023-11-01T20:46:36.192Z,20.73
2023-11-01T20:49:03.085Z,20.74
2023-11-01T20:51:30.257Z,20.74
2023-11-01T20:53:59.542Z,20.71
2023-11-01T20:56:26.452Z,20.73
2023-11-01T20:58:53.262Z,20.71
2023-11-01T21:01:20.262Z,20.66
2023-11-01T21:03:47.850Z,20.68
2023-11-01T21:06:14.838Z,20.67
2023-11-01T21:08:44.762Z,20.68
2023-11-01T21:11:11.729Z,20.68
2023-11-01T21:13:38.830Z,20.67
2023-11-01T21:16:06.858Z,20.69
2023-11-01T21:18:33.916Z,20.69
2023-11-01T21:21:01.976Z,20.67
2023-11-01T21:23:29.013Z,20.67
2023-11-01T21:25:56.506Z,20.63
2023-11-01T21:28:23.322Z,20.55
2023-11-01T21:30:50.133Z,20.55
2023-11-01T21:33:22.052Z,20.57
2023-11-01T21:35:49.170Z,20.56
2023-11-01T21:38:17.988Z,20.53
2023-11-01T21:40:47.976Z,20.50
2023-11-01T21:43:18.181Z,20.49
2023-11-01T21:45:53.880Z,20.46
2023-11-01T21:48:25.809Z,20.46
2023-11-01T21:51:01.908Z,20.43
2023-11-01T21:53:33.970Z,20.42
2023-11-01T21:56:01.552Z,20.42
2023-11-01T21:58:29.295Z,20.35
2023-11-01T22:01:04.138Z,20.36
2023-11-01T22:03:41.049Z,20.36
2023-11-01T22:06:22.124Z,20.25
2023-11-01T22:09:07.305Z,20.23
2023-11-01T22:11:41.708Z,20.20
2023-11-01T22:14:13.757Z,20.25
2023-11-01T22:16:41.858Z,20.24
2023-11-01T22:19:33.561Z,20.29
2023-11-01T22:22:30.600Z,20.25
2023-11-01T22:24:57.436Z,20.22
2023-11-01T22:27:35.562Z,20.25
2023-11-01T22:30:02.489Z,20.17
2023-11-01T22:32:29.669Z,20.19
2023-11-01T22:34:56.527Z,20.25
2023-11-01T22:37:26.062Z,20.30
2023-11-01T22:39:54.077Z,20.31
2023-11-01T22:42:32.082Z,20.33
2023-11-01T22:45:01.943Z,20.34
2023-11-01T22:47:29.402Z,20.36
2023-11-01T22:49:56.303Z,20.36
2023-11-01T22:52:23.217Z,20.40
2023-11-01T22:54:50.047Z,20.42
2023-11-01T22:57:16.988Z,20.43
2023-11-01T22:59:44.503Z,20.46
2023-11-01T23:02:13.540Z,20.45
2023-11-01T23:04:41.794Z,20.42
2023-11-01T23:07:10.870Z,20.35
2023-11-01T23:09:37.856Z,20.29
2023-11-01T23:12:05.257Z,20.23
2023-11-01T23:14:32.238Z,20.25
2023-11-01T23:16:59.091Z,20.23
2023-11-01T23:19:25.966Z,20.16
2023-11-01T23:21:52.785Z,20.20
2023-11-01T23:24:20.274Z,20.22
2023-11-01T23:26:57.265Z,20.23
2023-11-01T23:29:26.132Z,20.23
2023-11-01T23:31:53.865Z,20.23
2023-11-01T23:34:39.845Z,20.15
2023-11-01T23:37:32.652Z,20.15
2023-11-01T23:39:59.845Z,20.15
2023-11-01T23:42:30.185Z,20.05
2023-11-01T23:44:58.872Z,19.97
2023-11-01T23:47:43.983Z,19.92
2023-11-01T23:50:29.602Z,19.75
2023-11-01T23:52:56.589Z,19.85
2023-11-01T23:55:23.595Z,19.83
2023-11-01T23:57:51.520Z,19.81
